Time;durP1;ratioP1;P1;durP2;ratioP2;P2;SDS_P1;SDS_P2;PMS_P1;PMS_P2;Temp;Humidity;BMP_temperature;BMP_pressure;BME280_temperature;BME280_humidity;BME280_pressure;Samples;Min_cycle;Max_cycle;Signal;HPM_P1;HPM_P2
2023/08/14 00:00:51;;;;;;;;;;;;;;;;;;2224414;58;1683;-20
2023/08/14 00:03:22;;;;;;;;;;;;;;;;;;2223193;66;1985;-20
2023/08/14 00:05:52;;;;;;;;;;;;;;;;;;2223225;58;1739;-20
2023/08/14 00:08:22;;;;;;;;;;;;;;;;;;2220044;66;1803;-20
2023/08/14 00:10:54;;;;;;;;;;;;;;;;;;2223097;66;1811;-20
2023/08/14 00:13:24;;;;;;;;;;;;;;;;;;2223566;58;2718;-20
2023/08/14 00:15:54;;;;;;;;;;;;;;;;;;2222734;66;2196;-20
2023/08/14 00:18:24;;;;;;;;;;;;;;;;;;2223384;66;1754;-20
2023/08/14 00:20:55;;;;;;;;;;;;;;;;;;2219976;59;1812;-20
2023/08/14 00:23:25;;;;;;;;;;;;;;;;;;2223483;66;1968;-20
2023/08/14 00:25:55;;;;;;;;;;;;;;;;;;2223251;58;2187;-20
2023/08/14 00:28:25;;;;;;;;;;;;;;;;;;2223213;66;1747;-20
2023/08/14 00:30:56;;;;;;;;;;;;;;;;;;2223610;58;1986;-20
2023/08/14 00:33:26;;;;;;;;;;;;;;;;;;2224688;66;1827;-20
2023/08/14 00:35:56;;;;;;;;;;;;;;;;;;2223323;66;1981;-20
2023/08/14 00:38:26;;;;;;;;;;;;;;;;;;2223126;61;1674;-18
2023/08/14 00:40:57;;;;;;;;;;;;;;;;;;2218234;66;2486;-18
2023/08/14 00:43:27;;;;;;;;;;;;;;;;;;2220649;66;2217;-18
2023/08/14 00:45:57;;;;;;;;;;;;;;;;;;2223416;58;1765;-18
2023/08/14 00:48:28;;;;;;;;;;;;;;;;;;2224703;58;1204;-18
2023/08/14 00:50:58;;;;;;;;;;;;;;;;;;2220349;58;1831;-18
2023/08/14 00:53:29;;;;;;;;;;;;;;;;;;2222142;58;2715;-17
2023/08/14 00:56:01;;;;;;;;;;;;;;;;;;2220460;58;1927;-18
2023/08/14 00:58:32;;;;;;;;;;;;;;;;;;2224292;66;1886;-18
2023/08/14 01:01:02;;;;;;;;;;;;;;;;;;2224974;58;1783;-18
2023/08/14 01:03:34;;;;;;;;;;;;;;;;;;2220478;58;1782;-19
2023/08/14 01:06:04;;;;;;;;;;;;;;;;;;2221000;66;1866;-18
2023/08/14 01:08:35;;;;;;;;;;;;;;;;;;2223916;66;1893;-18
2023/08/14 01:11:07;;;;;;;;;;;;;;;;;;2223694;66;2002;-18
2023/08/14 01:13:43;;;;;;;;;;;;;;;;;;2219957;58;1892;-17
2023/08/14 01:16:19;;;;;;;;;;;;;;;;;;2220580;66;1998;-18
2023/08/14 01:18:51;;;;;;;;;;;;;;;;;;2220444;66;1719;-17
2023/08/14 01:21:29;;;;;;;;;;;;;;;;;;2223978;66;2367;-18
2023/08/14 01:23:59;;;;;;;;;;;;;;;;;;2223773;66;1789;-18
2023/08/14 01:26:33;;;;;;;;;;;;;;;;;;2223909;58;2894;-17
2023/08/14 01:29:03;;;;;;;;;;;;;;;;;;2223884;66;2383;-18
2023/08/14 01:31:34;;;;;;;;;;;;;;;;;;2220412;58;2825;-18
2023/08/14 01:34:04;;;;;;;;;;;;;;;;;;2223742;58;1983;-18
2023/08/14 01:36:49;;;;;;;;;;;;;;;;;;2223970;59;1941;-18
2023/08/14 01:39:21;;;;;;;;;;;;;;;;;;2223998;66;1828;-18
2023/08/14 01:41:59;;;;;;;;;;;;;;;;;;2223803;66;3201;-18
2023/08/14 01:44:30;;;;;;;;;;;;;;;;;;2221228;58;2243;-17
2023/08/14 01:47:03;;;;;;;;;;;;;;;;;;2223685;58;1877;-18
2023/08/14 01:49:36;;;;;;;;;;;;;;;;;;2223737;58;2378;-17
2023/08/14 01:52:06;;;;;;;;;;;;;;;;;;2223474;58;2379;-18
2023/08/14 01:54:37;;;;;;;;;;;;;;;;;;2222821;58;2554;-17
2023/08/14 01:57:07;;;;;;;;;;;;;;;;;;2223756;58;1779;-17
2023/08/14 01:59:42;;;;;;;;;;;;;;;;;;2220433;66;1507;-17
2023/08/14 02:02:12;;;;;;;;;;;;;;;;;;2224314;58;2183;-17
2023/08/14 02:04:43;;;;;;;;;;;;;;;;;;2223342;58;2227;-17
2023/08/14 02:07:13;;;;;;;;;;;;;;;;;;2222825;59;1975;-17
2023/08/14 02:09:43;;;;;;;;;;;;;;;;;;2224415;58;2002;-18
2023/08/14 02:12:14;;;;;;;;;;;;;;;;;;2220360;58;2037;-18
2023/08/14 02:14:44;;;;;;;;;;;;;;;;;;2224707;59;1927;-17
2023/08/14 02:17:14;;;;;;;;;;;;;;;;;;2223581;66;1779;-18
2023/08/14 02:19:47;;;;;;;;;;;;;;;;;;2223894;66;1835;-18
2023/08/14 02:22:18;;;;;;;;;;;;;;;;;;2223248;66;2098;-18
2023/08/14 02:24:48;;;;;;;;;;;;;;;;;;2224286;66;1754;-27
2023/08/14 02:27:18;;;;;;;;;;;;;;;;;;2220391;58;2090;-20
2023/08/14 02:29:48;;;;;;;;;;;;;;;;;;2224374;66;1891;-20
2023/08/14 02:32:19;;;;;;;;;;;;;;;;;;2224449;58;3095;-20
2023/08/14 02:34:49;;;;;;;;;;;;;;;;;;2223973;66;2053;-20
2023/08/14 02:37:20;;;;;;;;;;;;;;;;;;2219786;66;1554;-20
2023/08/14 02:39:50;;;;;;;;;;;;;;;;;;2224360;66;2609;-20
2023/08/14 02:42:20;;;;;;;;;;;;;;;;;;2223610;66;1738;-20
2023/08/14 02:44:51;;;;;;;;;;;;;;;;;;2224313;58;2991;-20
2023/08/14 02:47:21;;;;;;;;;;;;;;;;;;2225006;58;1795;-20
2023/08/14 02:49:51;;;;;;;;;;;;;;;;;;2225537;58;1859;-20
2023/08/14 02:52:21;;;;;;;;;;;;;;;;;;2224580;58;1279;-20
2023/08/14 02:54:52;;;;;;;;;;;;;;;;;;2222575;58;2337;-20
2023/08/14 02:57:22;;;;;;;;;;;;;;;;;;2223395;66;2131;-20
2023/08/14 02:59:55;;;;;;;;;;;;;;;;;;2224119;58;1965;-20
2023/08/14 03:02:25;;;;;;;;;;;;;;;;;;2221016;66;1731;-20
2023/08/14 03:04:55;;;;;;;;;;;;;;;;;;2223844;58;2855;-20
2023/08/14 03:07:26;;;;;;;;;;;;;;;;;;2224697;66;2406;-20
2023/08/14 03:09:59;;;;;;;;;;;;;;;;;;2220538;58;1757;-20
2023/08/14 03:12:29;;;;;;;;;;;;;;;;;;2225624;58;1334;-20
2023/08/14 03:15:00;;;;;;;;;;;;;;;;;;2219336;66;2008;-20
2023/08/14 03:17:30;;;;;;;;;;;;;;;;;;2219021;66;1322;-20
2023/08/14 03:20:01;;;;;;;;;;;;;;;;;;2221239;66;2090;-20
2023/08/14 03:22:31;;;;;;;;;;;;;;;;;;2224125;66;1625;-20
2023/08/14 03:25:01;;;;;;;;;;;;;;;;;;2223657;59;1198;-20
2023/08/14 03:27:31;;;;;;;;;;;;;;;;;;2223976;58;1201;-20
2023/08/14 03:30:02;;;;;;;;;;;;;;;;;;2220389;66;1672;-20
2023/08/14 03:32:32;;;;;;;;;;;;;;;;;;2224291;58;1780;-20
2023/08/14 03:35:02;;;;;;;;;;;;;;;;;;2223534;66;1972;-20
2023/08/14 03:37:34;;;;;;;;;;;;;;;;;;2219983;66;1777;-20
2023/08/14 03:40:05;;;;;;;;;;;;;;;;;;2223928;66;1481;-20
2023/08/14 03:42:35;;;;;;;;;;;;;;;;;;2224898;58;1204;-20
2023/08/14 03:45:05;;;;;;;;;;;;;;;;;;2224060;58;1518;-20
2023/08/14 03:47:37;;;;;;;;;;;;;;;;;;2220807;58;1854;-20
2023/08/14 03:50:07;;;;;;;;;;;;;;;;;;2221451;58;1729;-20
2023/08/14 03:52:37;;;;;;;;;;;;;;;;;;2220703;58;1347;-20
2023/08/14 03:55:08;;;;;;;;;;;;;;;;;;2224509;58;2224;-20
2023/08/14 03:57:38;;;;;;;;;;;;;;;;;;2221450;58;2221;-20
2023/08/14 04:00:09;;;;;;;;;;;;;;;;;;2224160;58;2599;-20
2023/08/14 04:02:39;;;;;;;;;;;;;;;;;;2221095;66;1795;-20
2023/08/14 04:05:09;;;;;;;;;;;;;;;;;;2224818;58;1808;-20
2023/08/14 04:07:40;;;;;;;;;;;;;;;;;;2225042;66;2238;-20
2023/08/14 04:10:10;;;;;;;;;;;;;;;;;;2224268;58;1843;-20
2023/08/14 04:12:40;;;;;;;;;;;;;;;;;;2225358;58;1904;-20
2023/08/14 04:15:11;;;;;;;;;;;;;;;;;;2220812;66;2003;-20
2023/08/14 04:17:42;;;;;;;;;;;;;;;;;;2222408;66;2735;-20
2023/08/14 04:20:12;;;;;;;;;;;;;;;;;;2223581;66;2260;-20
2023/08/14 04:22:43;;;;;;;;;;;;;;;;;;2224244;66;1757;-20
2023/08/14 04:25:13;;;;;;;;;;;;;;;;;;2224382;59;1755;-20
2023/08/14 04:27:43;;;;;;;;;;;;;;;;;;2220234;58;1802;-20
2023/08/14 04:30:14;;;;;;;;;;;;;;;;;;2221304;66;1763;-20
2023/08/14 04:32:44;;;;;;;;;;;;;;;;;;2224458;58;2349;-20
2023/08/14 04:35:14;;;;;;;;;;;;;;;;;;2224220;66;2000;-20
2023/08/14 04:37:44;;;;;;;;;;;;;;;;;;2220271;59;1860;-20
2023/08/14 04:40:15;;;;;;;;;;;;;;;;;;2222931;66;2593;-20
2023/08/14 04:42:45;;;;;;;;;;;;;;;;;;2224015;66;1708;-20
2023/08/14 04:45:15;;;;;;;;;;;;;;;;;;2224056;58;1627;-20
2023/08/14 04:47:45;;;;;;;;;;;;;;;;;;2228105;53;1721;-23
2023/08/14 04:50:15;;;;;;;;;;;;;;;;;;2218264;58;1716;-23
2023/08/14 04:52:46;;;;;;;;;;;;;;;;;;2219651;58;1547;-23
2023/08/14 04:55:16;;;;;;;;;;;;;;;;;;2218791;58;1979;-23
2023/08/14 04:57:46;;;;;;;;;;;;;;;;;;2218526;63;2822;-23
2023/08/14 05:00:17;;;;;;;;;;;;;;;;;;2219723;58;1204;-23
2023/08/14 05:02:47;;;;;;;;;;;;;;;;;;2219178;66;1666;-23
2023/08/14 05:05:19;;;;;;;;;;;;;;;;;;2218024;58;1703;-24
2023/08/14 05:07:49;;;;;;;;;;;;;;;;;;2219824;66;1852;-23
2023/08/14 05:10:19;;;;;;;;;;;;;;;;;;2219085;59;1641;-23
2023/08/14 05:12:49;;;;;;;;;;;;;;;;;;2219542;58;1679;-23
2023/08/14 05:15:19;;;;;;;;;;;;;;;;;;2218180;66;2100;-23
2023/08/14 05:17:49;;;;;;;;;;;;;;;;;;2219152;66;1772;-23
2023/08/14 05:20:20;;;;;;;;;;;;;;;;;;2219110;66;1322;-23
2023/08/14 05:22:50;;;;;;;;;;;;;;;;;;2218957;66;1750;-23
2023/08/14 05:25:23;;;;;;;;;;;;;;;;;;2219206;66;1163;-23
2023/08/14 05:27:53;;;;;;;;;;;;;;;;;;2218908;58;1851;-23
2023/08/14 05:30:23;;;;;;;;;;;;;;;;;;2215324;58;1355;-23
2023/08/14 05:32:54;;;;;;;;;;;;;;;;;;2218953;58;2159;-23
2023/08/14 05:35:24;;;;;;;;;;;;;;;;;;2218780;59;1984;-23
2023/08/14 05:37:56;;;;;;;;;;;;;;;;;;2218103;66;1778;-23
2023/08/14 05:40:26;;;;;;;;;;;;;;;;;;2219538;66;1786;-24
2023/08/14 05:43:04;;;;;;;;;;;;;;;;;;2214935;66;1845;-23
2023/08/14 05:45:35;;;;;;;;;;;;;;;;;;2218924;58;1432;-24
2023/08/14 05:48:06;;;;;;;;;;;;;;;;;;2219491;58;1928;-24
2023/08/14 05:50:36;;;;;;;;;;;;;;;;;;2218971;66;1459;-23
2023/08/14 05:53:07;;;;;;;;;;;;;;;;;;2219035;58;1668;-24
2023/08/14 05:55:39;;;;;;;;;;;;;;;;;;2219337;58;1927;-23
2023/08/14 05:58:09;;;;;;;;;;;;;;;;;;2214824;59;2874;-23
2023/08/14 06:00:39;;;;;;;;;;;;;;;;;;2219320;58;2544;-23
2023/08/14 06:03:09;;;;;;;;;;;;;;;;;;2218500;66;1848;-24
2023/08/14 06:05:40;;;;;;;;;;;;;;;;;;2219671;58;2125;-23
2023/08/14 06:08:10;;;;;;;;;;;;;;;;;;2218695;66;1823;-23
2023/08/14 06:10:40;;;;;;;;;;;;;;;;;;2219465;58;1835;-23
2023/08/14 06:13:11;;;;;;;;;;;;;;;;;;2219265;66;1895;-24
2023/08/14 06:15:41;;;;;;;;;;;;;;;;;;2218834;58;2202;-24
2023/08/14 06:18:11;;;;;;;;;;;;;;;;;;2218588;66;1659;-24
2023/08/14 06:20:42;;;;;;;;;;;;;;;;;;2219824;66;1470;-24
2023/08/14 06:23:12;;;;;;;;;;;;;;;;;;2215159;66;1257;-24
2023/08/14 06:25:42;;;;;;;;;;;;;;;;;;2219761;66;1305;-24
2023/08/14 06:28:12;;;;;;;;;;;;;;;;;;2218979;58;1968;-24
2023/08/14 06:30:46;;;;;;;;;;;;;;;;;;2219175;66;1963;-24
2023/08/14 06:33:16;;;;;;;;;;;;;;;;;;2218667;58;1613;-24
2023/08/14 06:35:46;;;;;;;;;;;;;;;;;;2218706;66;1999;-24
2023/08/14 06:38:16;;;;;;;;;;;;;;;;;;2218103;66;1797;-24
2023/08/14 06:40:47;;;;;;;;;;;;;;;;;;2219387;66;1675;-24
2023/08/14 06:43:17;;;;;;;;;;;;;;;;;;2218753;66;1925;-24
2023/08/14 06:45:47;;;;;;;;;;;;;;;;;;2218264;58;2005;-24
2023/08/14 06:48:19;;;;;;;;;;;;;;;;;;2217816;58;1449;-24
2023/08/14 06:50:49;;;;;;;;;;;;;;;;;;2219384;58;1720;-24
2023/08/14 06:53:19;;;;;;;;;;;;;;;;;;2214920;58;1771;-24
2023/08/14 06:55:50;;;;;;;;;;;;;;;;;;2216286;58;1926;-24
2023/08/14 06:58:20;;;;;;;;;;;;;;;;;;2219207;59;2533;-24
2023/08/14 07:00:50;;;;;;;;;;;;;;;;;;2219190;58;2610;-24
2023/08/14 07:03:20;;;;;;;;;;;;;;;;;;2219371;66;1220;-24
2023/08/14 07:05:51;;;;;;;;;;;;;;;;;;2220067;58;1370;-24
2023/08/14 07:08:21;;;;;;;;;;;;;;;;;;2218069;66;1250;-24
2023/08/14 07:10:51;;;;;;;;;;;;;;;;;;2219480;58;1656;-24
2023/08/14 07:13:22;;;;;;;;;;;;;;;;;;2215975;58;2020;-24
2023/08/14 07:15:52;;;;;;;;;;;;;;;;;;2219120;66;2131;-24
2023/08/14 07:18:22;;;;;;;;;;;;;;;;;;2218884;66;1647;-24
2023/08/14 07:20:52;;;;;;;;;;;;;;;;;;2219178;66;1617;-24
2023/08/14 07:23:23;;;;;;;;;;;;;;;;;;2215287;66;1734;-24
2023/08/14 07:25:55;;;;;;;;;;;;;;;;;;2219078;66;1249;-24
2023/08/14 07:28:25;;;;;;;;;;;;;;;;;;2218960;66;1716;-24
2023/08/14 07:30:56;;;;;;;;;;;;;;;;;;2219838;66;1774;-24
2023/08/14 07:33:26;;;;;;;;;;;;;;;;;;2219657;58;2155;-24
2023/08/14 07:35:57;;;;;;;;;;;;;;;;;;2219113;66;1921;-24
2023/08/14 07:38:27;;;;;;;;;;;;;;;;;;2219842;66;1560;-24
2023/08/14 07:40:58;;;;;;;;;;;;;;;;;;2219081;66;2024;-24
2023/08/14 07:43:28;;;;;;;;;;;;;;;;;;2219854;66;1915;-24
2023/08/14 07:45:58;;;;;;;;;;;;;;;;;;2219514;58;1563;-24
2023/08/14 07:48:28;;;;;;;;;;;;;;;;;;2219769;58;1612;-24
2023/08/14 07:50:59;;;;;;;;;;;;;;;;;;2215412;58;1799;-24
2023/08/14 07:53:29;;;;;;;;;;;;;;;;;;2219516;58;2084;-24
2023/08/14 07:56:02;;;;;;;;;;;;;;;;;;2219461;58;1935;-24
2023/08/14 07:58:32;;;;;;;;;;;;;;;;;;2219346;66;2337;-24
2023/08/14 08:01:02;;;;;;;;;;;;;;;;;;2218268;58;2546;-24
2023/08/14 08:03:33;;;;;;;;;;;;;;;;;;2219591;58;1825;-24
2023/08/14 08:06:03;;;;;;;;;;;;;;;;;;2219359;66;2427;-24
2023/08/14 08:08:33;;;;;;;;;;;;;;;;;;2219794;66;2016;-24
2023/08/14 08:11:03;;;;;;;;;;;;;;;;;;2219454;66;1439;-23
2023/08/14 08:13:34;;;;;;;;;;;;;;;;;;2219863;58;2228;-22
2023/08/14 08:16:04;;;;;;;;;;;;;;;;;;2218885;66;2813;-23
2023/08/14 08:18:34;;;;;;;;;;;;;;;;;;2219426;66;2976;-22
2023/08/14 08:21:07;;;;;;;;;;;;;;;;;;2217099;66;2498;-22
2023/08/14 08:23:38;;;;;;;;;;;;;;;;;;2218597;59;2484;-22
2023/08/14 08:26:08;;;;;;;;;;;;;;;;;;2218924;58;1989;-23
2023/08/14 08:28:38;;;;;;;;;;;;;;;;;;2218797;59;2332;-22
2023/08/14 08:31:08;;;;;;;;;;;;;;;;;;2220065;58;1848;-23
2023/08/14 08:33:38;;;;;;;;;;;;;;;;;;2218872;58;1908;-23
2023/08/14 08:36:09;;;;;;;;;;;;;;;;;;2219261;59;2011;-23
2023/08/14 08:38:39;;;;;;;;;;;;;;;;;;2218950;66;1736;-23
2023/08/14 08:41:11;;;;;;;;;;;;;;;;;;2218967;66;2056;-23
2023/08/14 08:43:42;;;;;;;;;;;;;;;;;;2219647;66;2076;-23
2023/08/14 08:46:12;;;;;;;;;;;;;;;;;;2218628;58;1919;-23
2023/08/14 08:48:42;;;;;;;;;;;;;;;;;;2216064;59;2473;-23
2023/08/14 08:51:13;;;;;;;;;;;;;;;;;;2215288;58;2716;-23
2023/08/14 08:53:44;;;;;;;;;;;;;;;;;;2216233;58;1871;-23
2023/08/14 08:56:14;;;;;;;;;;;;;;;;;;2218377;58;2014;-23
2023/08/14 08:58:44;;;;;;;;;;;;;;;;;;2215350;66;2618;-23
2023/08/14 09:01:15;;;;;;;;;;;;;;;;;;2217566;58;2554;-23
2023/08/14 09:03:46;;;;;;;;;;;;;;;;;;2218767;58;2532;-23
2023/08/14 09:06:17;;;;;;;;;;;;;;;;;;2218463;66;1629;-23
2023/08/14 09:08:47;;;;;;;;;;;;;;;;;;2218649;58;1786;-23
2023/08/14 09:11:17;;;;;;;;;;;;;;;;;;2215788;58;2475;-23
2023/08/14 09:13:48;;;;;;;;;;;;;;;;;;2218269;66;1929;-23
2023/08/14 09:16:18;;;;;;;;;;;;;;;;;;2214651;66;2006;-23
2023/08/14 09:18:48;;;;;;;;;;;;;;;;;;2218680;66;1785;-23
2023/08/14 09:21:18;;;;;;;;;;;;;;;;;;2215543;66;2551;-23
2023/08/14 09:23:49;;;;;;;;;;;;;;;;;;2218683;66;2004;-23
2023/08/14 09:26:19;;;;;;;;;;;;;;;;;;2218424;66;2472;-23
2023/08/14 09:28:50;;;;;;;;;;;;;;;;;;2214634;66;1812;-23
2023/08/14 09:31:20;;;;;;;;;;;;;;;;;;2218162;58;1964;-23
2023/08/14 09:33:51;;;;;;;;;;;;;;;;;;2218294;58;1751;-23
2023/08/14 09:36:21;;;;;;;;;;;;;;;;;;2217809;66;1932;-23
2023/08/14 09:38:51;;;;;;;;;;;;;;;;;;2219015;66;1876;-23
2023/08/14 09:41:24;;;;;;;;;;;;;;;;;;2218741;66;2444;-23
2023/08/14 09:43:54;;;;;;;;;;;;;;;;;;2218717;66;2739;-23
2023/08/14 09:46:24;;;;;;;;;;;;;;;;;;2218517;58;2410;-23
2023/08/14 09:48:55;;;;;;;;;;;;;;;;;;2218334;58;1799;-23
2023/08/14 09:51:25;;;;;;;;;;;;;;;;;;2218922;58;2598;-23
2023/08/14 09:53:58;;;;;;;;;;;;;;;;;;2219033;58;2350;-23
2023/08/14 09:56:29;;;;;;;;;;;;;;;;;;2215182;58;1939;-23
2023/08/14 09:58:59;;;;;;;;;;;;;;;;;;2218445;66;2210;-23
2023/08/14 10:01:30;;;;;;;;;;;;;;;;;;2218333;58;2445;-23
2023/08/14 10:04:00;;;;;;;;;;;;;;;;;;2217593;59;2866;-23
2023/08/14 10:06:31;;;;;;;;;;;;;;;;;;2218142;66;2609;-23
2023/08/14 10:09:02;;;;;;;;;;;;;;;;;;2214672;66;1988;-23
2023/08/14 10:11:34;;;;;;;;;;;;;;;;;;2218176;58;2457;-23
2023/08/14 10:14:06;;;;;;;;;;;;;;;;;;2218465;66;1942;-23
2023/08/14 10:16:38;;;;;;;;;;;;;;;;;;2214592;66;1951;-23
2023/08/14 10:19:09;;;;;;;;;;;;;;;;;;2215108;66;1951;-23
2023/08/14 10:21:42;;;;;;;;;;;;;;;;;;2218482;66;2002;-23
2023/08/14 10:24:12;;;;;;;;;;;;;;;;;;2218579;66;2738;-23
2023/08/14 10:26:44;;;;;;;;;;;;;;;;;;2218413;58;2077;-23
2023/08/14 10:29:15;;;;;;;;;;;;;;;;;;2219034;66;1892;-23
2023/08/14 10:31:46;;;;;;;;;;;;;;;;;;2218199;58;2036;-23
2023/08/14 10:34:17;;;;;;;;;;;;;;;;;;2216071;59;1718;-23
2023/08/14 10:36:53;;;;;;;;;;;;;;;;;;2218125;66;1945;-23
2023/08/14 10:39:34;;;;;;;;;;;;;;;;;;2218343;66;1627;-23
2023/08/14 10:42:08;;;;;;;;;;;;;;;;;;2218092;66;1748;-23
2023/08/14 10:44:42;;;;;;;;;;;;;;;;;;2218362;58;2705;-23
2023/08/14 10:47:12;;;;;;;;;;;;;;;;;;2218202;66;1661;-24
2023/08/14 10:49:44;;;;;;;;;;;;;;;;;;2217917;58;2032;-22
2023/08/14 10:52:15;;;;;;;;;;;;;;;;;;2214943;58;1741;-19
2023/08/14 10:54:52;;;;;;;;;;;;;;;;;;2212308;59;2264;-19
2023/08/14 10:57:28;;;;;;;;;;;;;;;;;;2216407;66;1268;-19
2023/08/14 10:59:58;;;;;;;;;;;;;;;;;;2216511;58;1479;-19
2023/08/14 11:02:39;;;;;;;;;;;;;;;;;;2211178;59;2322;-19
2023/08/14 11:05:16;;;;;;;;;;;;;;;;;;2214870;58;2154;-20
2023/08/14 11:08:00;;;;;;;;;;;;;;;;;;2214909;59;1875;-19
2023/08/14 11:10:31;;;;;;;;;;;;;;;;;;2212462;59;1592;-19
2023/08/14 11:13:02;;;;;;;;;;;;;;;;;;2211956;59;2270;-19
2023/08/14 11:15:34;;;;;;;;;;;;;;;;;;2213932;66;1988;-19
2023/08/14 11:18:05;;;;;;;;;;;;;;;;;;2214657;59;1947;-19
2023/08/14 11:20:43;;;;;;;;;;;;;;;;;;2211264;59;1838;-20
2023/08/14 11:23:14;;;;;;;;;;;;;;;;;;2209151;66;1960;-19
2023/08/14 11:25:44;;;;;;;;;;;;;;;;;;2215078;59;1784;-19
2023/08/14 11:28:14;;;;;;;;;;;;;;;;;;2215271;66;2585;-21
2023/08/14 11:30:45;;;;;;;;;;;;;;;;;;2211394;66;1771;-22
2023/08/14 11:33:20;;;;;;;;;;;;;;;;;;2215179;58;1908;-21
2023/08/14 11:35:53;;;;;;;;;;;;;;;;;;2214728;66;2729;-21
2023/08/14 11:38:23;;;;;;;;;;;;;;;;;;2210925;66;1963;-19
2023/08/14 11:40:54;;;;;;;;;;;;;;;;;;2215462;66;1640;-19
2023/08/14 11:43:24;;;;;;;;;;;;;;;;;;2215720;66;2194;-19
2023/08/14 11:45:55;;;;;;;;;;;;;;;;;;2211640;59;1932;-19
2023/08/14 11:48:25;;;;;;;;;;;;;;;;;;2214921;66;1228;-19
2023/08/14 11:50:55;;;;;;;;;;;;;;;;;;2215560;58;1351;-19
2023/08/14 11:53:32;;;;;;;;;;;;;;;;;;2212218;59;1482;-19
2023/08/14 11:56:03;;;;;;;;;;;;;;;;;;2212485;59;2012;-19
2023/08/14 11:58:36;;;;;;;;;;;;;;;;;;2211693;66;1690;-19
2023/08/14 12:01:07;;;;;;;;;;;;;;;;;;2211458;59;1232;-19
2023/08/14 12:03:38;;;;;;;;;;;;;;;;;;2210104;58;2369;-20
2023/08/14 12:06:08;;;;;;;;;;;;;;;;;;2214136;59;2535;-19
2023/08/14 12:08:38;;;;;;;;;;;;;;;;;;2214580;66;1787;-20
2023/08/14 12:11:15;;;;;;;;;;;;;;;;;;2211251;66;2491;-20
2023/08/14 12:13:49;;;;;;;;;;;;;;;;;;2214597;66;1675;-20
2023/08/14 12:16:20;;;;;;;;;;;;;;;;;;2209663;66;2171;-20
2023/08/14 12:18:52;;;;;;;;;;;;;;;;;;2212215;59;2065;-19
2023/08/14 12:21:27;;;;;;;;;;;;;;;;;;2215573;59;2218;-21
2023/08/14 12:23:57;;;;;;;;;;;;;;;;;;2212971;66;1509;-19
2023/08/14 12:26:40;;;;;;;;;;;;;;;;;;2216199;66;2849;-19
2023/08/14 12:29:12;;;;;;;;;;;;;;;;;;2215905;66;2412;-19
2023/08/14 12:31:43;;;;;;;;;;;;;;;;;;2213186;59;1604;-19
2023/08/14 12:34:13;;;;;;;;;;;;;;;;;;2216345;58;1673;-19
2023/08/14 12:36:43;;;;;;;;;;;;;;;;;;2215619;66;1969;-19
2023/08/14 12:39:16;;;;;;;;;;;;;;;;;;2212433;66;1225;-19
2023/08/14 12:41:54;;;;;;;;;;;;;;;;;;2215928;66;1372;-19
2023/08/14 12:44:25;;;;;;;;;;;;;;;;;;2212455;59;1680;-19
2023/08/14 12:46:55;;;;;;;;;;;;;;;;;;2216027;66;1326;-19
2023/08/14 12:49:25;;;;;;;;;;;;;;;;;;2215834;58;1364;-19
2023/08/14 12:51:59;;;;;;;;;;;;;;;;;;2216822;58;1607;-19
2023/08/14 12:54:29;;;;;;;;;;;;;;;;;;2213871;59;1208;-21
2023/08/14 12:56:59;;;;;;;;;;;;;;;;;;2217094;59;1939;-21
2023/08/14 12:59:32;;;;;;;;;;;;;;;;;;2216816;66;1561;-21
2023/08/14 13:02:03;;;;;;;;;;;;;;;;;;2216421;58;1476;-21
2023/08/14 13:04:33;;;;;;;;;;;;;;;;;;2214840;58;2432;-21
2023/08/14 13:07:03;;;;;;;;;;;;;;;;;;2215205;60;2603;-21
2023/08/14 13:09:33;;;;;;;;;;;;;;;;;;2216019;66;1819;-21
2023/08/14 13:12:04;;;;;;;;;;;;;;;;;;2210021;59;2192;-19
2023/08/14 13:14:34;;;;;;;;;;;;;;;;;;2215792;66;1751;-19
2023/08/14 13:17:04;;;;;;;;;;;;;;;;;;2215445;66;2670;-19
2023/08/14 13:19:34;;;;;;;;;;;;;;;;;;2215078;66;1763;-19
2023/08/14 13:22:05;;;;;;;;;;;;;;;;;;2215607;66;1801;-19
2023/08/14 13:24:35;;;;;;;;;;;;;;;;;;2211582;66;1805;-19
2023/08/14 13:27:05;;;;;;;;;;;;;;;;;;2216573;58;2310;-19
2023/08/14 13:29:36;;;;;;;;;;;;;;;;;;2215544;59;2480;-19
2023/08/14 13:32:06;;;;;;;;;;;;;;;;;;2216360;58;1793;-19
2023/08/14 13:34:36;;;;;;;;;;;;;;;;;;2214845;66;2012;-19
2023/08/14 13:37:06;;;;;;;;;;;;;;;;;;2215112;66;2531;-19
2023/08/14 13:39:37;;;;;;;;;;;;;;;;;;2215429;66;1812;-19
2023/08/14 13:42:07;;;;;;;;;;;;;;;;;;2215192;66;2960;-19
2023/08/14 13:44:37;;;;;;;;;;;;;;;;;;2212294;58;2347;-19
2023/08/14 13:47:08;;;;;;;;;;;;;;;;;;2215843;66;1988;-19
2023/08/14 13:49:38;;;;;;;;;;;;;;;;;;2216165;58;2107;-19
2023/08/14 13:52:08;;;;;;;;;;;;;;;;;;2215978;58;1993;-19
2023/08/14 13:54:38;;;;;;;;;;;;;;;;;;2215561;58;2100;-19
2023/08/14 13:57:08;;;;;;;;;;;;;;;;;;2216319;58;2240;-19
2023/08/14 13:59:39;;;;;;;;;;;;;;;;;;2215347;66;2230;-19
2023/08/14 14:02:10;;;;;;;;;;;;;;;;;;2216086;58;2464;-19
2023/08/14 14:04:41;;;;;;;;;;;;;;;;;;2215654;58;2451;-19
2023/08/14 14:07:11;;;;;;;;;;;;;;;;;;2214399;59;2547;-19
2023/08/14 14:09:42;;;;;;;;;;;;;;;;;;2215816;58;1875;-19
2023/08/14 14:12:12;;;;;;;;;;;;;;;;;;2215975;58;1851;-19
2023/08/14 14:14:42;;;;;;;;;;;;;;;;;;2215086;66;1663;-19
2023/08/14 14:17:13;;;;;;;;;;;;;;;;;;2211796;66;1956;-19
2023/08/14 14:19:43;;;;;;;;;;;;;;;;;;2215070;59;1657;-19
2023/08/14 14:22:13;;;;;;;;;;;;;;;;;;2215446;66;1863;-19
2023/08/14 14:24:43;;;;;;;;;;;;;;;;;;2214776;66;1752;-19
2023/08/14 14:27:13;;;;;;;;;;;;;;;;;;2211493;59;1844;-19
2023/08/14 14:29:44;;;;;;;;;;;;;;;;;;2212579;66;2364;-19
2023/08/14 14:32:14;;;;;;;;;;;;;;;;;;2212278;58;1899;-19
2023/08/14 14:34:44;;;;;;;;;;;;;;;;;;2211403;66;2059;-19
2023/08/14 14:37:14;;;;;;;;;;;;;;;;;;2214902;66;2385;-19
2023/08/14 14:39:44;;;;;;;;;;;;;;;;;;2212347;59;1741;-19
2023/08/14 14:42:15;;;;;;;;;;;;;;;;;;2215481;59;2288;-19
2023/08/14 14:44:46;;;;;;;;;;;;;;;;;;2215478;58;1987;-19
2023/08/14 14:47:21;;;;;;;;;;;;;;;;;;2215559;66;2623;-21
2023/08/14 14:49:51;;;;;;;;;;;;;;;;;;2215781;58;1486;-19
2023/08/14 14:52:21;;;;;;;;;;;;;;;;;;2216886;58;1547;-19
2023/08/14 14:54:51;;;;;;;;;;;;;;;;;;2212533;59;1980;-19
2023/08/14 14:57:22;;;;;;;;;;;;;;;;;;2213126;59;2195;-19
2023/08/14 14:59:52;;;;;;;;;;;;;;;;;;2216204;58;1579;-19
2023/08/14 15:02:22;;;;;;;;;;;;;;;;;;2215753;66;1391;-19
2023/08/14 15:04:52;;;;;;;;;;;;;;;;;;2215190;58;1785;-19
2023/08/14 15:07:23;;;;;;;;;;;;;;;;;;2214570;59;2276;-19
2023/08/14 15:09:53;;;;;;;;;;;;;;;;;;2213267;59;2423;-19
2023/08/14 15:12:23;;;;;;;;;;;;;;;;;;2215694;59;1597;-19
2023/08/14 15:14:54;;;;;;;;;;;;;;;;;;2215918;66;2219;-19
2023/08/14 15:17:24;;;;;;;;;;;;;;;;;;2212599;66;1512;-21
2023/08/14 15:19:55;;;;;;;;;;;;;;;;;;2214949;66;1477;-21
2023/08/14 15:22:28;;;;;;;;;;;;;;;;;;2215526;66;1187;-21
2023/08/14 15:24:59;;;;;;;;;;;;;;;;;;2211612;59;2026;-21
2023/08/14 15:27:30;;;;;;;;;;;;;;;;;;2215359;66;1610;-21
2023/08/14 15:30:00;;;;;;;;;;;;;;;;;;2211669;66;1811;-21
2023/08/14 15:32:30;;;;;;;;;;;;;;;;;;2215492;58;1868;-21
2023/08/14 15:35:01;;;;;;;;;;;;;;;;;;2215993;66;1991;-21
2023/08/14 15:37:31;;;;;;;;;;;;;;;;;;2215873;59;2082;-21
2023/08/14 15:40:04;;;;;;;;;;;;;;;;;;2215383;66;1814;-21
2023/08/14 15:42:34;;;;;;;;;;;;;;;;;;2215579;66;2048;-21
2023/08/14 15:45:04;;;;;;;;;;;;;;;;;;2215164;58;1846;-21
2023/08/14 15:47:38;;;;;;;;;;;;;;;;;;2215663;66;1579;-21
2023/08/14 15:50:08;;;;;;;;;;;;;;;;;;2216251;58;1679;-21
2023/08/14 15:52:38;;;;;;;;;;;;;;;;;;2212490;59;1990;-21
2023/08/14 15:55:09;;;;;;;;;;;;;;;;;;2216034;58;2023;-21
2023/08/14 15:57:39;;;;;;;;;;;;;;;;;;2213166;59;2148;-21
2023/08/14 16:00:09;;;;;;;;;;;;;;;;;;2216788;58;1878;-21
2023/08/14 16:02:40;;;;;;;;;;;;;;;;;;2216344;66;1213;-21
2023/08/14 16:05:10;;;;;;;;;;;;;;;;;;2216855;59;1930;-21
2023/08/14 16:07:40;;;;;;;;;;;;;;;;;;2212756;66;2599;-21
2023/08/14 16:10:11;;;;;;;;;;;;;;;;;;2215325;59;2711;-21
2023/08/14 16:12:41;;;;;;;;;;;;;;;;;;2215821;59;2219;-21
2023/08/14 16:15:11;;;;;;;;;;;;;;;;;;2215727;66;1947;-21
2023/08/14 16:17:42;;;;;;;;;;;;;;;;;;2212744;66;1825;-21
2023/08/14 16:20:12;;;;;;;;;;;;;;;;;;2215213;66;2845;-21
2023/08/14 16:22:46;;;;;;;;;;;;;;;;;;2215353;59;1787;-21
2023/08/14 16:25:16;;;;;;;;;;;;;;;;;;2215651;66;1780;-21
2023/08/14 16:27:46;;;;;;;;;;;;;;;;;;2215934;66;2086;-21
2023/08/14 16:30:17;;;;;;;;;;;;;;;;;;2213251;66;2324;-21
2023/08/14 16:32:47;;;;;;;;;;;;;;;;;;2216444;58;1814;-21
2023/08/14 16:35:17;;;;;;;;;;;;;;;;;;2216216;66;2487;-21
2023/08/14 16:37:47;;;;;;;;;;;;;;;;;;2212443;66;1629;-21
2023/08/14 16:40:18;;;;;;;;;;;;;;;;;;2216055;62;1971;-20
2023/08/14 16:42:48;;;;;;;;;;;;;;;;;;2216074;66;1631;-21
2023/08/14 16:45:18;;;;;;;;;;;;;;;;;;2216066;58;1662;-21
2023/08/14 16:47:48;;;;;;;;;;;;;;;;;;2216025;59;1319;-20
2023/08/14 16:52:53;;;;;;;;;;;;;;;;;;2213472;59;2031;-20
2023/08/14 16:55:23;;;;;;;;;;;;;;;;;;2213404;58;1975;-20
2023/08/14 16:57:54;;;;;;;;;;;;;;;;;;2215056;66;2550;-20
2023/08/14 17:00:24;;;;;;;;;;;;;;;;;;2215656;58;1738;-20
2023/08/14 17:02:56;;;;;;;;;;;;;;;;;;2215262;58;1881;-20
2023/08/14 17:05:26;;;;;;;;;;;;;;;;;;2216298;59;2022;-19
2023/08/14 17:07:57;;;;;;;;;;;;;;;;;;2213771;59;2148;-20
2023/08/14 17:10:27;;;;;;;;;;;;;;;;;;2214502;58;2862;-19
2023/08/14 17:12:57;;;;;;;;;;;;;;;;;;2214884;58;1625;-20
2023/08/14 17:15:37;;;;;;;;;;;;;;;;;;2212667;66;1920;-20
2023/08/14 17:18:08;;;;;;;;;;;;;;;;;;2215238;66;1697;-20
2023/08/14 17:20:43;;;;;;;;;;;;;;;;;;2215807;58;1941;-21
2023/08/14 17:23:15;;;;;;;;;;;;;;;;;;2212556;66;1865;-20
2023/08/14 17:25:52;;;;;;;;;;;;;;;;;;2212468;58;1491;-20
2023/08/14 17:28:24;;;;;;;;;;;;;;;;;;2211747;66;2114;-20
2023/08/14 17:30:55;;;;;;;;;;;;;;;;;;2214756;66;1761;-21